a3-freunde - Die Audi A3 Community

Allgemeine Fragen (8L)


Titel Antworten Hits Letzter Beitrag
[8L] Frage zur Elektronischen Wegfahrsperre 8 908 24.10.2019 11:48
[8L] Springt manchmal nicht an 16 2.135 20.10.2019 15:06
[8L] Neues Lenkrad für a3 8l 1 625 18.10.2019 13:45
[8L] Hilfe beim Sitzwechsel A3 8l BJ 97 2 560 18.10.2019 7:46
[8L] Gemisch zu Mager 3 707 17.10.2019 21:53
[8L] Nummer dieses Gummistopfens 1 485 16.10.2019 0:10
[8L] Gänge rutschen durch beim beschleunigen, Ölverlust unter Motor (nicht ganz klar woher) 3 519 15.10.2019 10:47
[8L] Kühlwasser - Störung 0 416 14.10.2019 21:16
[8L] Fragen zu Benzindruckregler und Ventil Saugrohrumschaltung 6 445 14.10.2019 20:23
[8L] Problem mit Kühlflüssigkeit 2 405 14.10.2019 17:13
[8L] Temp. fühler defekt ? 3 743 14.10.2019 7:45
[8L] Fr Bodystyling S3 Look Front- und Heckstoßstange 2 563 11.10.2019 20:11
[8L] Problem mit Bremse 7 699 11.10.2019 17:53
[8L] Novus Endschalldämpfer Absorber sichtbar? 0 426 11.10.2019 17:34
[8L] Keine Leistung und Ruckler - Luftmasse gering 6 578 11.10.2019 14:31
[8L] Unruhiger Lauf im Stand, geht häufig aus und läuft unrund in den ersten 200 Metern 4 499 11.10.2019 9:48
mittelarmlehne handyvorbereitung entfernen? 10 8.216 10.10.2019 15:14
[8L] Starkes Brummen bei last 5 535 9.10.2019 19:31
[8L] Kraftstoffleitung 2 577 9.10.2019 6:30
[8L] Enorm hoher Spritverbrauch im FIS im Stand 2 491 9.10.2019 0:07
[8L] Summen beim Gas Geben 4 829 8.10.2019 20:09
[8L] A3 startet schlecht 1 432 4.10.2019 17:48
[8L] 1,6 AEH - Beschleunigt nicht so wie früher - Spitzengeschwindigkeit ist 5-10 km/h langsamer - Wie prüft man die Funktion der Registersaugrohrumschaltung? 11 1.844 3.10.2019 23:00
[8L] Rücklicht Blinker 1 366 1.10.2019 19:48
[8L] Automatischer Fensterheber Schalter 3 902 1.10.2019 18:37
[8L] S3 Getriebe/Winkelgetriebe Öl-Frage 21 2.863 1.10.2019 17:20
[8L] Tacho (nummer) ? 9 1.905 1.10.2019 7:42
[8L] Suche gutes Buch zur Technik 13 3.796 30.9.2019 10:45
[8L] Gaszug tauschen - wie? 0 317 30.9.2019 10:12
[8L] Motor würgt leicht ab 2 515 28.9.2019 21:41


© a3-freunde.de 2003-2018